sensor_id;sensor_type;location;lat;lon;timestamp;pressure;altitude;pressure_sealevel;temperature;humidity
31044;BME280;17710;52.520;13.352;2023-01-26T00:01:21;102090.91;;;6.00;60.67
31044;BME280;17710;52.520;13.352;2023-01-26T00:03:48;102089.13;;;5.94;60.33
31044;BME280;17710;52.520;13.352;2023-01-26T00:06:16;102086.50;;;5.97;60.48
31044;BME280;17710;52.520;13.352;2023-01-26T00:08:45;102089.09;;;5.91;60.25
31044;BME280;17710;52.520;13.352;2023-01-26T00:11:14;102083.91;;;6.00;59.84
31044;BME280;17710;52.520;13.352;2023-01-26T00:13:42;102084.66;;;5.80;60.53
31044;BME280;17710;52.520;13.352;2023-01-26T00:16:10;102081.31;;;6.11;59.91
31044;BME280;17710;52.520;13.352;2023-01-26T00:18:38;102082.22;;;6.18;59.91
31044;BME280;17710;52.520;13.352;2023-01-26T00:21:06;102073.47;;;6.19;59.45
31044;BME280;17710;52.520;13.352;2023-01-26T00:23:34;102079.56;;;6.12;59.76
31044;BME280;17710;52.520;13.352;2023-01-26T00:26:01;102072.50;;;5.91;60.39
31044;BME280;17710;52.520;13.352;2023-01-26T00:28:29;102070.47;;;5.46;61.27
31044;BME280;17710;52.520;13.352;2023-01-26T00:31:01;102053.13;;;5.68;61.22
31044;BME280;17710;52.520;13.352;2023-01-26T00:33:27;102047.78;;;5.51;61.83
31044;BME280;17710;52.520;13.352;2023-01-26T00:35:54;102046.97;;;5.61;61.46
31044;BME280;17710;52.520;13.352;2023-01-26T00:38:21;102044.41;;;5.70;61.44
31044;BME280;17710;52.520;13.352;2023-01-26T00:40:48;102054.81;;;5.59;61.86
31044;BME280;17710;52.520;13.352;2023-01-26T00:43:14;102042.72;;;5.83;61.01
31044;BME280;17710;52.520;13.352;2023-01-26T00:45:42;102047.91;;;5.75;61.21
31044;BME280;17710;52.520;13.352;2023-01-26T00:48:09;102046.09;;;5.65;61.59
31044;BME280;17710;52.520;13.352;2023-01-26T00:50:35;102042.44;;;5.34;62.47
31044;BME280;17710;52.520;13.352;2023-01-26T00:53:01;102040.75;;;5.44;62.84
31044;BME280;17710;52.520;13.352;2023-01-26T00:55:28;102045.78;;;5.10;63.64
31044;BME280;17710;52.520;13.352;2023-01-26T00:57:56;102036.25;;;5.26;62.84
31044;BME280;17710;52.520;13.352;2023-01-26T01:00:22;102038.78;;;5.09;62.96
31044;BME280;17710;52.520;13.352;2023-01-26T01:02:50;102044.19;;;5.38;62.41
31044;BME280;17710;52.520;13.352;2023-01-26T01:05:16;102027.72;;;5.56;61.34
31044;BME280;17710;52.520;13.352;2023-01-26T01:07:43;102031.19;;;5.53;61.31
31044;BME280;17710;52.520;13.352;2023-01-26T01:10:09;102031.16;;;5.47;61.55
31044;BME280;17710;52.520;13.352;2023-01-26T01:12:36;102037.38;;;5.63;61.23
31044;BME280;17710;52.520;13.352;2023-01-26T01:15:03;102033.09;;;5.83;60.83
31044;BME280;17710;52.520;13.352;2023-01-26T01:17:29;102023.44;;;5.78;60.95
31044;BME280;17710;52.520;13.352;2023-01-26T01:19:57;102029.56;;;5.75;60.78
31044;BME280;17710;52.520;13.352;2023-01-26T01:22:23;102027.84;;;5.83;60.52
31044;BME280;17710;52.520;13.352;2023-01-26T01:24:50;102027.09;;;6.12;59.46
31044;BME280;17710;52.520;13.352;2023-01-26T01:27:16;102018.31;;;5.94;60.28
31044;BME280;17710;52.520;13.352;2023-01-26T01:29:45;102009.53;;;5.91;59.96
31044;BME280;17710;52.520;13.352;2023-01-26T01:32:11;102005.22;;;6.04;59.78
31044;BME280;17710;52.520;13.352;2023-01-26T01:34:37;102012.09;;;5.80;60.53
31044;BME280;17710;52.520;13.352;2023-01-26T01:37:05;102012.16;;;5.91;60.06
31044;BME280;17710;52.520;13.352;2023-01-26T01:39:31;102013.84;;;5.81;60.72
31044;BME280;17710;52.520;13.352;2023-01-26T01:41:58;102013.91;;;5.92;60.04
31044;BME280;17710;52.520;13.352;2023-01-26T01:44:25;102003.34;;;5.80;60.25
31044;BME280;17710;52.520;13.352;2023-01-26T01:46:54;102010.34;;;5.82;60.37
31044;BME280;17710;52.520;13.352;2023-01-26T01:49:25;102006.94;;;5.98;60.52
31044;BME280;17710;52.520;13.352;2023-01-26T01:51:56;102008.66;;;5.93;59.84
31044;BME280;17710;52.520;13.352;2023-01-26T01:54:29;102005.16;;;5.97;60.34
31044;BME280;17710;52.520;13.352;2023-01-26T01:56:59;101999.06;;;5.98;60.21
31044;BME280;17710;52.520;13.352;2023-01-26T01:59:29;101998.97;;;5.85;60.26
31044;BME280;17710;52.520;13.352;2023-01-26T02:01:56;101997.31;;;5.99;60.46
31044;BME280;17710;52.520;13.352;2023-01-26T02:04:23;101990.34;;;6.03;59.88
31044;BME280;17710;52.520;13.352;2023-01-26T02:06:52;101987.75;;;6.13;60.06
31044;BME280;17710;52.520;13.352;2023-01-26T02:09:25;101981.59;;;6.13;60.36
31044;BME280;17710;52.520;13.352;2023-01-26T02:12:13;101986.84;;;6.13;60.24
31044;BME280;17710;52.520;13.352;2023-01-26T02:14:41;101985.94;;;5.92;60.48
31044;BME280;17710;52.520;13.352;2023-01-26T02:17:08;101980.72;;;5.97;60.60
31044;BME280;17710;52.520;13.352;2023-01-26T02:19:42;101972.75;;;5.86;60.66
31044;BME280;17710;52.520;13.352;2023-01-26T02:22:18;101961.50;;;6.09;60.28
31044;BME280;17710;52.520;13.352;2023-01-26T02:24:48;101966.69;;;5.98;60.23
31044;BME280;17710;52.520;13.352;2023-01-26T02:27:16;101957.16;;;6.17;60.25
31044;BME280;17710;52.520;13.352;2023-01-26T02:29:43;101952.69;;;5.93;60.98
31044;BME280;17710;52.520;13.352;2023-01-26T02:32:09;101950.97;;;5.95;60.59
31044;BME280;17710;52.520;13.352;2023-01-26T02:34:35;101947.44;;;5.93;60.62
31044;BME280;17710;52.520;13.352;2023-01-26T02:37:02;101938.75;;;6.02;60.51
31044;BME280;17710;52.520;13.352;2023-01-26T02:39:39;101939.59;;;6.00;60.38
31044;BME280;17710;52.520;13.352;2023-01-26T02:42:09;101939.59;;;6.05;59.83
31044;BME280;17710;52.520;13.352;2023-01-26T02:44:54;101938.53;;;5.50;61.81
31044;BME280;17710;52.520;13.352;2023-01-26T02:47:21;101943.75;;;5.47;62.46
31044;BME280;17710;52.520;13.352;2023-01-26T02:49:47;101943.66;;;5.26;62.39
31044;BME280;17710;52.520;13.352;2023-01-26T02:52:15;101932.19;;;5.04;63.36
31044;BME280;17710;52.520;13.352;2023-01-26T02:54:42;101935.75;;;5.19;63.23
31044;BME280;17710;52.520;13.352;2023-01-26T02:57:31;101931.56;;;5.50;62.64
31044;BME280;17710;52.520;13.352;2023-01-26T03:00:00;101928.97;;;5.61;61.77
31044;BME280;17710;52.520;13.352;2023-01-26T03:02:30;101933.22;;;5.35;62.06
31044;BME280;17710;52.520;13.352;2023-01-26T03:04:56;101940.13;;;5.16;63.01
31044;BME280;17710;52.520;13.352;2023-01-26T03:07:22;101930.44;;;5.04;62.91
31044;BME280;17710;52.520;13.352;2023-01-26T03:09:49;101933.84;;;4.90;64.33
31044;BME280;17710;52.520;13.352;2023-01-26T03:12:15;101930.53;;;5.18;63.28
31044;BME280;17710;52.520;13.352;2023-01-26T03:14:42;101934.94;;;5.27;62.80
31044;BME280;17710;52.520;13.352;2023-01-26T03:17:09;101934.13;;;5.46;62.31
31044;BME280;17710;52.520;13.352;2023-01-26T03:19:36;101931.47;;;5.35;61.93
31044;BME280;17710;52.520;13.352;2023-01-26T03:22:19;101927.09;;;5.30;62.91
31044;BME280;17710;52.520;13.352;2023-01-26T03:25:04;101936.66;;;5.18;62.87
31044;BME280;17710;52.520;13.352;2023-01-26T03:27:48;101927.06;;;5.27;62.02
31044;BME280;17710;52.520;13.352;2023-01-26T03:30:17;101928.06;;;5.50;61.96
31044;BME280;17710;52.520;13.352;2023-01-26T03:32:46;101921.94;;;5.51;61.65
31044;BME280;17710;52.520;13.352;2023-01-26T03:35:13;101920.22;;;5.65;60.71
31044;BME280;17710;52.520;13.352;2023-01-26T03:37:40;101918.50;;;5.70;60.16
31044;BME280;17710;52.520;13.352;2023-01-26T03:40:09;101912.44;;;5.83;60.21
31044;BME280;17710;52.520;13.352;2023-01-26T03:42:54;101917.63;;;5.70;60.52
31044;BME280;17710;52.520;13.352;2023-01-26T03:45:38;101918.44;;;5.49;60.93
31044;BME280;17710;52.520;13.352;2023-01-26T03:48:23;101919.41;;;5.81;60.13
31044;BME280;17710;52.520;13.352;2023-01-26T03:51:07;101922.00;;;5.69;60.01
31044;BME280;17710;52.520;13.352;2023-01-26T03:53:51;101924.63;;;5.78;59.72
31044;BME280;17710;52.520;13.352;2023-01-26T03:56:35;101923.75;;;5.73;59.61
31044;BME280;17710;52.520;13.352;2023-01-26T03:59:03;101927.28;;;5.75;59.61
31044;BME280;17710;52.520;13.352;2023-01-26T04:01:34;101923.78;;;5.76;59.43
31044;BME280;17710;52.520;13.352;2023-01-26T04:04:03;101922.03;;;5.84;59.10
31044;BME280;17710;52.520;13.352;2023-01-26T04:06:48;101923.75;;;5.75;58.71
31044;BME280;17710;52.520;13.352;2023-01-26T04:09:32;101922.88;;;5.70;59.11
31044;BME280;17710;52.520;13.352;2023-01-26T04:12:00;101916.84;;;5.93;58.27
31044;BME280;17710;52.520;13.352;2023-01-26T04:14:27;101913.31;;;5.82;57.85
31044;BME280;17710;52.520;13.352;2023-01-26T04:17:11;101907.22;;;5.98;58.14
31044;BME280;17710;52.520;13.352;2023-01-26T04:19:56;101904.59;;;5.92;57.80
31044;BME280;17710;52.520;13.352;2023-01-26T04:22:40;101897.53;;;5.79;58.34
31044;BME280;17710;52.520;13.352;2023-01-26T04:25:11;101896.66;;;5.80;58.16
31044;BME280;17710;52.520;13.352;2023-01-26T04:27:37;101895.88;;;5.96;58.32
31044;BME280;17710;52.520;13.352;2023-01-26T04:30:05;101891.50;;;6.00;57.55
31044;BME280;17710;52.520;13.352;2023-01-26T04:32:32;101895.88;;;5.90;58.00
31044;BME280;17710;52.520;13.352;2023-01-26T04:35:00;101899.38;;;6.12;57.41
31044;BME280;17710;52.520;13.352;2023-01-26T04:37:26;101889.75;;;6.05;57.01
31044;BME280;17710;52.520;13.352;2023-01-26T04:39:53;101895.00;;;6.05;56.86
31044;BME280;17710;52.520;13.352;2023-01-26T04:42:19;101893.25;;;6.03;57.30
31044;BME280;17710;52.520;13.352;2023-01-26T04:44:48;101888.81;;;5.85;57.30
31044;BME280;17710;52.520;13.352;2023-01-26T04:47:15;101878.38;;;6.00;57.19
31044;BME280;17710;52.520;13.352;2023-01-26T04:49:41;101884.53;;;6.04;57.37
31044;BME280;17710;52.520;13.352;2023-01-26T04:52:09;101875.75;;;6.11;58.13
31044;BME280;17710;52.520;13.352;2023-01-26T04:54:35;101886.28;;;6.21;58.04
31044;BME280;17710;52.520;13.352;2023-01-26T04:57:02;101880.94;;;5.86;58.81
31044;BME280;17710;52.520;13.352;2023-01-26T04:59:28;101882.75;;;5.90;59.56
31044;BME280;17710;52.520;13.352;2023-01-26T05:01:55;101871.31;;;5.81;60.03
31044;BME280;17710;52.520;13.352;2023-01-26T05:04:22;101872.28;;;6.03;58.83
31044;BME280;17710;52.520;13.352;2023-01-26T05:06:48;101868.78;;;6.22;58.28
31044;BME280;17710;52.520;13.352;2023-01-26T05:09:16;101862.63;;;6.44;57.78
31044;BME280;17710;52.520;13.352;2023-01-26T05:11:42;101862.63;;;6.38;57.90
31044;BME280;17710;52.520;13.352;2023-01-26T05:14:08;101858.25;;;6.11;57.83
31044;BME280;17710;52.520;13.352;2023-01-26T05:16:42;101862.63;;;6.12;58.27
31044;BME280;17710;52.520;13.352;2023-01-26T05:19:17;101869.53;;;5.72;59.75
31044;BME280;17710;52.520;13.352;2023-01-26T05:21:43;101866.91;;;5.63;59.52
31044;BME280;17710;52.520;13.352;2023-01-26T05:24:10;101873.94;;;5.73;59.58
31044;BME280;17710;52.520;13.352;2023-01-26T05:26:37;101874.81;;;5.75;59.88
31044;BME280;17710;52.520;13.352;2023-01-26T05:29:04;101870.53;;;5.97;58.80
31044;BME280;17710;52.520;13.352;2023-01-26T05:31:31;101869.63;;;5.95;58.98
31044;BME280;17710;52.520;13.352;2023-01-26T05:33:57;101872.19;;;5.86;59.62
31044;BME280;17710;52.520;13.352;2023-01-26T05:36:23;101873.94;;;5.69;59.48
31044;BME280;17710;52.520;13.352;2023-01-26T05:38:50;101869.63;;;5.93;59.35
31044;BME280;17710;52.520;13.352;2023-01-26T05:41:16;101867.00;;;5.95;59.42
31044;BME280;17710;52.520;13.352;2023-01-26T05:43:44;101868.75;;;5.97;59.44
31044;BME280;17710;52.520;13.352;2023-01-26T05:46:10;101866.13;;;5.94;59.17
31044;BME280;17710;52.520;13.352;2023-01-26T05:48:37;101873.94;;;5.81;59.19
31044;BME280;17710;52.520;13.352;2023-01-26T05:51:03;101879.13;;;5.59;59.54
31044;BME280;17710;52.520;13.352;2023-01-26T05:53:30;101882.69;;;5.75;59.42
31044;BME280;17710;52.520;13.352;2023-01-26T05:55:56;101878.31;;;5.74;58.95
31044;BME280;17710;52.520;13.352;2023-01-26T05:58:22;101879.09;;;5.47;59.70
31044;BME280;17710;52.520;13.352;2023-01-26T06:00:53;101889.53;;;5.29;60.50
31044;BME280;17710;52.520;13.352;2023-01-26T06:03:19;101892.19;;;5.43;59.75
31044;BME280;17710;52.520;13.352;2023-01-26T06:05:51;101891.38;;;5.56;59.25
31044;BME280;17710;52.520;13.352;2023-01-26T06:08:18;101885.28;;;5.74;58.77
31044;BME280;17710;52.520;13.352;2023-01-26T06:10:44;101893.03;;;5.39;59.46
31044;BME280;17710;52.520;13.352;2023-01-26T06:13:10;101880.91;;;5.73;58.97
31044;BME280;17710;52.520;13.352;2023-01-26T06:15:37;101880.88;;;5.65;58.53
31044;BME280;17710;52.520;13.352;2023-01-26T06:18:04;101886.25;;;5.98;58.05
31044;BME280;17710;52.520;13.352;2023-01-26T06:20:31;101888.81;;;5.77;58.16
31044;BME280;17710;52.520;13.352;2023-01-26T06:22:58;101891.44;;;5.86;57.64
31044;BME280;17710;52.520;13.352;2023-01-26T06:25:24;101887.06;;;5.85;58.47
31044;BME280;17710;52.520;13.352;2023-01-26T06:27:51;101894.06;;;5.86;58.39
31044;BME280;17710;52.520;13.352;2023-01-26T06:30:21;101888.81;;;5.80;58.92
31044;BME280;17710;52.520;13.352;2023-01-26T06:32:47;101889.63;;;5.59;59.34
31044;BME280;17710;52.520;13.352;2023-01-26T06:35:15;101886.03;;;5.30;60.40
31044;BME280;17710;52.520;13.352;2023-01-26T06:37:41;101885.25;;;5.57;59.55
31044;BME280;17710;52.520;13.352;2023-01-26T06:40:10;101884.41;;;5.72;59.67
31044;BME280;17710;52.520;13.352;2023-01-26T06:42:36;101880.94;;;5.74;59.04
31044;BME280;17710;52.520;13.352;2023-01-26T06:45:03;101886.94;;;5.40;60.15
31044;BME280;17710;52.520;13.352;2023-01-26T06:47:30;101896.56;;;5.45;60.82
31044;BME280;17710;52.520;13.352;2023-01-26T06:49:56;101893.97;;;5.53;60.13
31044;BME280;17710;52.520;13.352;2023-01-26T06:52:30;101892.03;;;5.12;61.30
31044;BME280;17710;52.520;13.352;2023-01-26T06:54:57;101888.69;;;5.45;60.65
31044;BME280;17710;52.520;13.352;2023-01-26T06:57:24;101896.63;;;5.65;59.93
31044;BME280;17710;52.520;13.352;2023-01-26T06:59:51;101892.19;;;5.43;59.88
31044;BME280;17710;52.520;13.352;2023-01-26T07:02:19;101894.81;;;5.41;60.00
31044;BME280;17710;52.520;13.352;2023-01-26T07:04:46;101887.03;;;5.67;59.30
31044;BME280;17710;52.520;13.352;2023-01-26T07:07:13;101880.06;;;5.75;59.36
31044;BME280;17710;52.520;13.352;2023-01-26T07:09:41;101880.13;;;5.87;59.05
31044;BME280;17710;52.520;13.352;2023-01-26T07:12:07;101887.94;;;5.86;58.67
31044;BME280;17710;52.520;13.352;2023-01-26T07:14:34;101878.38;;;6.02;58.14
31044;BME280;17710;52.520;13.352;2023-01-26T07:17:01;101887.09;;;5.84;58.03
31044;BME280;17710;52.520;13.352;2023-01-26T07:19:27;101884.34;;;5.49;59.55
31044;BME280;17710;52.520;13.352;2023-01-26T07:21:55;101887.78;;;5.30;59.41
31044;BME280;17710;52.520;13.352;2023-01-26T07:24:22;101891.19;;;5.15;59.82
31044;BME280;17710;52.520;13.352;2023-01-26T07:26:49;101892.91;;;5.04;60.24
31044;BME280;17710;52.520;13.352;2023-01-26T07:29:16;101898.97;;;4.98;60.13
31044;BME280;17710;52.520;13.352;2023-01-26T07:31:43;101902.50;;;5.06;60.70
31044;BME280;17710;52.520;13.352;2023-01-26T07:34:09;101892.97;;;5.25;59.66
31044;BME280;17710;52.520;13.352;2023-01-26T07:36:36;101891.38;;;5.56;59.36
31044;BME280;17710;52.520;13.352;2023-01-26T07:39:03;101892.22;;;5.58;58.33
31044;BME280;17710;52.520;13.352;2023-01-26T07:41:30;101889.59;;;5.52;58.25
31044;BME280;17710;52.520;13.352;2023-01-26T07:43:58;101904.41;;;5.38;58.18
31044;BME280;17710;52.520;13.352;2023-01-26T07:46:24;101906.16;;;5.36;58.61
31044;BME280;17710;52.520;13.352;2023-01-26T07:48:51;101895.78;;;5.72;58.25
31044;BME280;17710;52.520;13.352;2023-01-26T07:51:20;101894.94;;;5.82;57.59
31044;BME280;17710;52.520;13.352;2023-01-26T07:53:47;101894.13;;;6.08;56.66
31044;BME280;17710;52.520;13.352;2023-01-26T07:56:15;101892.34;;;5.91;56.71
31044;BME280;17710;52.520;13.352;2023-01-26T07:58:48;101893.25;;;6.12;55.91
31044;BME280;17710;52.520;13.352;2023-01-26T08:01:15;101894.13;;;6.11;56.27
31044;BME280;17710;52.520;13.352;2023-01-26T08:03:42;101895.03;;;6.32;55.74
31044;BME280;17710;52.520;13.352;2023-01-26T08:06:11;101905.53;;;6.20;55.64
31044;BME280;17710;52.520;13.352;2023-01-26T08:08:38;101904.66;;;6.47;55.20
31044;BME280;17710;52.520;13.352;2023-01-26T08:11:05;101904.59;;;5.89;55.37
31044;BME280;17710;52.520;13.352;2023-01-26T08:13:31;101920.09;;;5.30;57.03
31044;BME280;17710;52.520;13.352;2023-01-26T08:16:01;101918.44;;;5.44;57.59
31044;BME280;17710;52.520;13.352;2023-01-26T08:18:30;101909.59;;;5.22;58.12
31044;BME280;17710;52.520;13.352;2023-01-26T08:20:57;101914.81;;;5.18;58.52
31044;BME280;17710;52.520;13.352;2023-01-26T08:23:24;101921.75;;;5.14;58.38
31044;BME280;17710;52.520;13.352;2023-01-26T08:25:50;101922.63;;;5.12;58.14
31044;BME280;17710;52.520;13.352;2023-01-26T08:28:17;101912.19;;;5.22;57.83
31044;BME280;17710;52.520;13.352;2023-01-26T08:30:47;101923.31;;;4.79;58.33
31044;BME280;17710;52.520;13.352;2023-01-26T08:33:13;101920.75;;;4.90;59.07
31044;BME280;17710;52.520;13.352;2023-01-26T08:35:41;101917.44;;;5.26;57.94
31044;BME280;17710;52.520;13.352;2023-01-26T08:38:07;101906.00;;;5.05;58.39
31044;BME280;17710;52.520;13.352;2023-01-26T08:40:34;101902.50;;;5.03;58.21
31044;BME280;17710;52.520;13.352;2023-01-26T08:43:01;101912.53;;;4.43;60.12
31044;BME280;17710;52.520;13.352;2023-01-26T08:45:28;101910.94;;;4.61;59.66
31044;BME280;17710;52.520;13.352;2023-01-26T08:47:55;101907.59;;;4.79;59.08
31044;BME280;17710;52.520;13.352;2023-01-26T08:50:22;101906.00;;;5.08;58.85
31044;BME280;17710;52.520;13.352;2023-01-26T08:52:50;101904.25;;;5.07;57.25
31044;BME280;17710;52.520;13.352;2023-01-26T08:55:16;101910.38;;;5.05;58.30
31044;BME280;17710;52.520;13.352;2023-01-26T08:57:42;101914.84;;;5.29;57.76
31044;BME280;17710;52.520;13.352;2023-01-26T09:00:10;101909.66;;;5.39;57.06
31044;BME280;17710;52.520;13.352;2023-01-26T09:02:37;101915.97;;;5.99;55.19
31044;BME280;17710;52.520;13.352;2023-01-26T09:05:04;101918.44;;;5.58;55.48
31044;BME280;17710;52.520;13.352;2023-01-26T09:07:30;101920.16;;;5.47;56.08
31044;BME280;17710;52.520;13.352;2023-01-26T09:09:58;101911.53;;;5.77;55.22
31044;BME280;17710;52.520;13.352;2023-01-26T09:12:24;101913.34;;;5.97;54.45
31044;BME280;17710;52.520;13.352;2023-01-26T09:14:51;101916.84;;;5.90;54.94
31044;BME280;17710;52.520;13.352;2023-01-26T09:17:18;101927.34;;;5.98;54.88
31044;BME280;17710;52.520;13.352;2023-01-26T09:19:44;101929.03;;;5.85;54.68
31044;BME280;17710;52.520;13.352;2023-01-26T09:22:11;101930.84;;;6.00;54.92
31044;BME280;17710;52.520;13.352;2023-01-26T09:24:37;101924.66;;;5.86;54.66
31044;BME280;17710;52.520;13.352;2023-01-26T09:27:05;101926.47;;;5.88;54.95
31044;BME280;17710;52.520;13.352;2023-01-26T09:29:31;101934.38;;;6.02;55.41
31044;BME280;17710;52.520;13.352;2023-01-26T09:31:58;101930.00;;;6.18;54.55
31044;BME280;17710;52.520;13.352;2023-01-26T09:34:24;101930.00;;;6.18;54.08
31044;BME280;17710;52.520;13.352;2023-01-26T09:36:53;101921.25;;;6.02;55.16
31044;BME280;17710;52.520;13.352;2023-01-26T09:39:20;101923.00;;;6.14;54.43
31044;BME280;17710;52.520;13.352;2023-01-26T09:41:57;101922.13;;;6.03;54.78
31044;BME280;17710;52.520;13.352;2023-01-26T09:44:30;101923.88;;;6.11;54.96
31044;BME280;17710;52.520;13.352;2023-01-26T09:47:04;101932.53;;;5.77;56.11
31044;BME280;17710;52.520;13.352;2023-01-26T09:49:44;101938.53;;;5.50;56.51
31044;BME280;17710;52.520;13.352;2023-01-26T09:52:17;101922.81;;;5.48;56.97
31044;BME280;17710;52.520;13.352;2023-01-26T09:54:49;101922.00;;;5.63;56.27
31044;BME280;17710;52.520;13.352;2023-01-26T09:57:19;101923.75;;;5.73;56.54
31044;BME280;17710;52.520;13.352;2023-01-26T09:59:50;101925.53;;;5.77;56.15
31044;BME280;17710;52.520;13.352;2023-01-26T10:02:26;101923.75;;;5.70;56.50
31044;BME280;17710;52.520;13.352;2023-01-26T10:04:57;101934.25;;;5.70;57.02
31044;BME280;17710;52.520;13.352;2023-01-26T10:07:27;101920.84;;;5.06;57.85
31044;BME280;17710;52.520;13.352;2023-01-26T10:09:53;101912.16;;;5.10;58.30
31044;BME280;17710;52.520;13.352;2023-01-26T10:12:22;101909.63;;;5.33;58.03
31044;BME280;17710;52.520;13.352;2023-01-26T10:14:52;101908.84;;;5.51;57.21
31044;BME280;17710;52.520;13.352;2023-01-26T10:17:26;101908.88;;;5.61;56.84
31044;BME280;17710;52.520;13.352;2023-01-26T10:19:56;101905.22;;;5.18;57.51
31044;BME280;17710;52.520;13.352;2023-01-26T10:22:30;101904.31;;;5.15;58.61
31044;BME280;17710;52.520;13.352;2023-01-26T10:24:59;101902.66;;;5.40;57.79
31044;BME280;17710;52.520;13.352;2023-01-26T10:27:26;101904.38;;;5.35;57.32
31044;BME280;17710;52.520;13.352;2023-01-26T10:29:54;101892.25;;;5.63;57.03
31044;BME280;17710;52.520;13.352;2023-01-26T10:32:21;101893.91;;;5.35;57.59
31044;BME280;17710;52.520;13.352;2023-01-26T10:34:48;101887.91;;;5.68;57.50
31044;BME280;17710;52.520;13.352;2023-01-26T10:37:21;101883.50;;;5.54;57.28
31044;BME280;17710;52.520;13.352;2023-01-26T10:39:57;101872.00;;;5.19;58.21
31044;BME280;17710;52.520;13.352;2023-01-26T10:42:26;101864.03;;;4.96;59.13
31044;BME280;17710;52.520;13.352;2023-01-26T10:44:55;101859.75;;;5.12;59.06
31044;BME280;17710;52.520;13.352;2023-01-26T10:47:21;101865.84;;;5.08;59.62
31044;BME280;17710;52.520;13.352;2023-01-26T10:49:48;101864.19;;;5.28;58.68
31044;BME280;17710;52.520;13.352;2023-01-26T10:52:16;101857.13;;;5.15;59.08
31044;BME280;17710;52.520;13.352;2023-01-26T10:54:43;101844.91;;;5.15;58.61
31044;BME280;17710;52.520;13.352;2023-01-26T10:57:25;101844.06;;;5.18;58.83
31044;BME280;17710;52.520;13.352;2023-01-26T10:59:56;101858.03;;;5.20;58.75
31044;BME280;17710;52.520;13.352;2023-01-26T11:02:25;101846.81;;;5.56;57.71
31044;BME280;17710;52.520;13.352;2023-01-26T11:05:13;101855.47;;;5.34;57.88
31044;BME280;17710;52.520;13.352;2023-01-26T11:07:41;101849.28;;;5.19;58.07
31044;BME280;17710;52.520;13.352;2023-01-26T11:10:20;101853.75;;;5.42;57.56
31044;BME280;17710;52.520;13.352;2023-01-26T11:12:47;101849.41;;;5.60;57.25
31044;BME280;17710;52.520;13.352;2023-01-26T11:15:20;101859.84;;;5.35;58.00
31044;BME280;17710;52.520;13.352;2023-01-26T11:17:51;101847.59;;;5.29;58.04
31044;BME280;17710;52.520;13.352;2023-01-26T11:20:43;101843.25;;;5.42;57.89
31044;BME280;17710;52.520;13.352;2023-01-26T11:23:16;101844.09;;;5.35;58.06
31044;BME280;17710;52.520;13.352;2023-01-26T11:25:56;101838.88;;;5.35;58.18
31044;BME280;17710;52.520;13.352;2023-01-26T11:28:35;101834.50;;;5.34;58.15
31044;BME280;17710;52.520;13.352;2023-01-26T11:31:15;101844.19;;;5.64;57.83
31044;BME280;17710;52.520;13.352;2023-01-26T11:33:51;101839.00;;;5.91;56.93
31044;BME280;17710;52.520;13.352;2023-01-26T11:36:26;101837.28;;;6.22;55.60
31044;BME280;17710;52.520;13.352;2023-01-26T11:38:59;101832.03;;;6.23;54.84
31044;BME280;17710;52.520;13.352;2023-01-26T11:41:39;101825.03;;;6.28;55.36
31044;BME280;17710;52.520;13.352;2023-01-26T11:47:12;101824.13;;;6.52;54.32
31044;BME280;17710;52.520;13.352;2023-01-26T11:49:54;101818.91;;;6.42;53.75
31044;BME280;17710;52.520;13.352;2023-01-26T11:52:30;101824.06;;;5.55;56.36
31044;BME280;17710;52.520;13.352;2023-01-26T11:55:17;101810.13;;;5.74;56.58
31044;BME280;17710;52.520;13.352;2023-01-26T11:57:57;101814.53;;;6.09;54.85
31044;BME280;17710;52.520;13.352;2023-01-26T12:00:36;101808.41;;;6.28;54.20
31044;BME280;17710;52.520;13.352;2023-01-26T12:03:14;101806.63;;;6.33;53.98
31044;BME280;17710;52.520;13.352;2023-01-26T12:05:45;101800.50;;;6.40;53.92
31044;BME280;17710;52.520;13.352;2023-01-26T12:08:18;101797.91;;;6.13;54.72
31044;BME280;17710;52.520;13.352;2023-01-26T12:10:49;101797.03;;;6.27;54.78
31044;BME280;17710;52.520;13.352;2023-01-26T12:13:30;101799.66;;;6.08;54.44
31044;BME280;17710;52.520;13.352;2023-01-26T12:16:07;101790.91;;;6.21;54.32
31044;BME280;17710;52.520;13.352;2023-01-26T12:18:44;101789.16;;;6.18;54.43
31044;BME280;17710;52.520;13.352;2023-01-26T12:21:13;101781.28;;;5.91;54.29
31044;BME280;17710;52.520;13.352;2023-01-26T12:23:43;101785.66;;;6.18;53.69
31044;BME280;17710;52.520;13.352;2023-01-26T12:26:14;101771.69;;;6.16;53.54
31044;BME280;17710;52.520;13.352;2023-01-26T12:28:45;101776.03;;;6.36;52.89
31044;BME280;17710;52.520;13.352;2023-01-26T12:31:18;101764.66;;;6.30;52.58
31044;BME280;17710;52.520;13.352;2023-01-26T12:33:52;101773.31;;;6.65;52.27
31044;BME280;17710;52.520;13.352;2023-01-26T12:36:26;101759.31;;;6.57;52.21
31044;BME280;17710;52.520;13.352;2023-01-26T12:39:03;101765.47;;;6.53;51.38
31044;BME280;17710;52.520;13.352;2023-01-26T12:41:40;101754.19;;;5.87;52.94
31044;BME280;17710;52.520;13.352;2023-01-26T12:44:13;101763.75;;;5.47;54.30
31044;BME280;17710;52.520;13.352;2023-01-26T12:46:45;101755.03;;;5.76;53.85
31044;BME280;17710;52.520;13.352;2023-01-26T12:49:16;101747.19;;;5.92;53.69
31044;BME280;17710;52.520;13.352;2023-01-26T12:51:49;101742.81;;;6.14;53.10
31044;BME280;17710;52.520;13.352;2023-01-26T12:54:22;101742.75;;;6.32;52.07
31044;BME280;17710;52.520;13.352;2023-01-26T12:56:55;101751.53;;;6.25;52.55
31044;BME280;17710;52.520;13.352;2023-01-26T12:59:28;101750.66;;;6.26;52.75
31044;BME280;17710;52.520;13.352;2023-01-26T13:01:56;101755.06;;;6.08;52.95
31044;BME280;17710;52.520;13.352;2023-01-26T13:04:24;101751.53;;;5.58;54.14
31044;BME280;17710;52.520;13.352;2023-01-26T13:07:01;101757.66;;;5.65;54.54